createdAt,value
2023-02-03T00:01:43.141Z,8.45
2023-02-03T00:04:09.581Z,8.36
2023-02-03T00:06:36.138Z,8.39
2023-02-03T00:09:02.522Z,8.39
2023-02-03T00:11:32.340Z,8.39
2023-02-03T00:13:58.798Z,8.55
2023-02-03T00:16:25.337Z,8.49
2023-02-03T00:18:51.780Z,8.57
2023-02-03T00:21:18.173Z,8.56
2023-02-03T00:23:44.880Z,8.58
2023-02-03T00:26:14.289Z,8.52
2023-02-03T00:28:41.166Z,8.47
2023-02-03T00:31:21.863Z,8.57
2023-02-03T00:33:54.293Z,8.51
2023-02-03T00:36:20.666Z,8.56
2023-02-03T00:38:48.915Z,8.60
2023-02-03T00:41:15.398Z,8.59
2023-02-03T00:43:41.785Z,8.52
2023-02-03T00:46:08.263Z,8.53
2023-02-03T00:48:34.716Z,8.49
2023-02-03T00:51:01.080Z,8.46
2023-02-03T00:53:27.439Z,8.50
2023-02-03T00:55:53.872Z,8.45
2023-02-03T00:58:20.215Z,8.46
2023-02-03T01:00:46.679Z,8.29
2023-02-03T01:03:13.105Z,8.39
2023-02-03T01:05:39.481Z,8.41
2023-02-03T01:08:05.901Z,8.44
2023-02-03T01:10:32.452Z,8.33
2023-02-03T01:12:59.061Z,8.40
2023-02-03T01:15:25.450Z,8.37
2023-02-03T01:17:51.833Z,8.19
2023-02-03T01:20:18.466Z,8.31
2023-02-03T01:22:44.836Z,8.40
2023-02-03T01:25:11.259Z,8.43
2023-02-03T01:27:37.697Z,8.48
2023-02-03T01:30:04.606Z,8.45
2023-02-03T01:32:30.988Z,8.41
2023-02-03T01:34:57.493Z,8.40
2023-02-03T01:37:23.919Z,8.35
2023-02-03T01:39:50.317Z,8.37
2023-02-03T01:42:16.733Z,8.35
2023-02-03T01:44:45.112Z,8.38
2023-02-03T01:47:36.809Z,8.41
2023-02-03T01:50:12.620Z,8.45
2023-02-03T01:52:42.453Z,8.37
2023-02-03T01:55:12.634Z,8.38
2023-02-03T01:57:51.618Z,8.34
2023-02-03T02:00:18.798Z,8.34
2023-02-03T02:02:47.645Z,8.38
2023-02-03T02:05:38.720Z,8.43
2023-02-03T02:08:07.088Z,8.39
2023-02-03T02:10:34.967Z,8.35
2023-02-03T02:13:03.463Z,8.39
2023-02-03T02:15:49.883Z,8.43
2023-02-03T02:18:23.932Z,8.38
2023-02-03T02:21:19.851Z,8.38
2023-02-03T02:24:07.733Z,8.34
2023-02-03T02:26:56.996Z,8.41
2023-02-03T02:29:54.899Z,8.37
2023-02-03T02:32:48.664Z,8.46
2023-02-03T02:35:36.424Z,8.39
2023-02-03T02:38:31.269Z,8.43
2023-02-03T02:41:08.015Z,8.43
2023-02-03T02:43:37.161Z,8.48
2023-02-03T02:46:10.860Z,8.52
2023-02-03T02:48:49.899Z,8.54
2023-02-03T02:51:17.100Z,8.49
2023-02-03T02:53:49.949Z,8.52
2023-02-03T02:56:19.212Z,8.60
2023-02-03T02:58:49.562Z,8.66
2023-02-03T03:01:16.448Z,8.66
2023-02-03T03:03:45.275Z,8.51
2023-02-03T03:06:29.264Z,8.64
2023-02-03T03:09:08.388Z,8.65
2023-02-03T03:11:41.295Z,8.70
2023-02-03T03:14:10.931Z,8.72
2023-02-03T03:16:41.488Z,8.50
2023-02-03T03:19:16.131Z,8.79
2023-02-03T03:21:51.275Z,8.73
2023-02-03T03:24:24.368Z,8.72
2023-02-03T03:26:57.860Z,8.72
2023-02-03T03:29:30.305Z,8.60
2023-02-03T03:31:57.352Z,8.72
2023-02-03T03:34:24.030Z,8.52
2023-02-03T03:36:56.102Z,8.64
2023-02-03T03:39:28.634Z,8.58
2023-02-03T03:42:07.732Z,8.63
2023-02-03T03:44:39.618Z,8.54
2023-02-03T03:47:23.972Z,8.66
2023-02-03T03:49:51.815Z,8.70
2023-02-03T03:52:23.768Z,8.45
2023-02-03T03:54:52.929Z,8.66
2023-02-03T03:57:24.515Z,8.68
2023-02-03T03:59:51.472Z,8.63
2023-02-03T04:02:20.374Z,8.87
2023-02-03T04:04:48.759Z,8.80
2023-02-03T04:07:15.652Z,8.83
2023-02-03T04:09:42.943Z,8.73
2023-02-03T04:12:22.086Z,8.85
2023-02-03T04:14:48.530Z,8.85
2023-02-03T04:17:15.079Z,8.80
2023-02-03T04:19:41.458Z,8.76
2023-02-03T04:22:07.871Z,8.89
2023-02-03T04:24:34.231Z,8.89
2023-02-03T04:27:00.703Z,8.88
2023-02-03T04:29:27.112Z,8.95
2023-02-03T04:31:53.607Z,8.85
2023-02-03T04:34:20.027Z,8.87
2023-02-03T04:36:46.497Z,8.83
2023-02-03T04:39:12.893Z,8.93
2023-02-03T04:41:39.253Z,8.89
2023-02-03T04:44:05.717Z,8.90
2023-02-03T04:46:32.117Z,8.73
2023-02-03T04:48:58.514Z,8.93
2023-02-03T04:51:24.880Z,8.76
2023-02-03T04:53:51.244Z,9.02
2023-02-03T04:56:17.621Z,9.03
2023-02-03T04:58:44.017Z,8.92
2023-02-03T05:01:10.741Z,8.94
2023-02-03T05:03:37.486Z,8.88
2023-02-03T05:06:05.492Z,8.98
2023-02-03T05:08:32.137Z,8.90
2023-02-03T05:11:00.672Z,8.97
2023-02-03T05:13:28.483Z,8.92
2023-02-03T05:15:54.846Z,8.87
2023-02-03T05:18:21.236Z,8.91
2023-02-03T05:20:47.627Z,8.90
2023-02-03T05:23:14.007Z,9.00
2023-02-03T05:25:40.421Z,8.91
2023-02-03T05:28:06.919Z,9.01
2023-02-03T05:30:33.366Z,8.72
2023-02-03T05:32:59.803Z,8.82
2023-02-03T05:35:26.220Z,8.89
2023-02-03T05:37:52.566Z,8.98
2023-02-03T05:40:37.729Z,9.02
2023-02-03T05:43:04.120Z,8.94
2023-02-03T05:45:31.591Z,8.81
2023-02-03T05:47:58.069Z,9.01
2023-02-03T05:50:24.972Z,9.01
2023-02-03T05:52:51.449Z,8.98
2023-02-03T05:55:18.012Z,9.01
2023-02-03T05:57:44.391Z,9.07
2023-02-03T06:00:11.411Z,8.98
2023-02-03T06:02:37.797Z,8.93
2023-02-03T06:05:04.357Z,9.04
2023-02-03T06:07:30.745Z,9.07
2023-02-03T06:09:57.102Z,8.90
2023-02-03T06:12:23.548Z,8.98
2023-02-03T06:14:49.972Z,9.10
2023-02-03T06:17:16.372Z,9.07
2023-02-03T06:19:42.737Z,9.00
2023-02-03T06:22:09.115Z,8.77
2023-02-03T06:24:35.482Z,9.06
2023-02-03T06:27:01.832Z,9.00
2023-02-03T06:29:28.186Z,9.02
2023-02-03T06:31:54.687Z,9.09
2023-02-03T06:34:21.164Z,9.08
2023-02-03T06:36:49.054Z,8.96
2023-02-03T06:39:15.832Z,8.80
2023-02-03T06:41:42.200Z,9.04
2023-02-03T06:44:08.579Z,8.94
2023-02-03T06:46:35.244Z,8.99
2023-02-03T06:49:01.768Z,9.02
2023-02-03T06:51:28.219Z,9.10
2023-02-03T06:53:54.608Z,9.11
2023-02-03T06:56:20.970Z,9.04
2023-02-03T06:58:47.332Z,9.10
2023-02-03T07:01:13.822Z,9.02
2023-02-03T07:03:40.426Z,9.04
2023-02-03T07:06:07.158Z,9.06
2023-02-03T07:08:33.549Z,8.93
2023-02-03T07:11:00.014Z,9.06
2023-02-03T07:13:26.375Z,9.01
2023-02-03T07:15:52.865Z,8.99
2023-02-03T07:18:45.550Z,9.00
2023-02-03T07:21:10.565Z,9.09
2023-02-03T07:23:36.940Z,9.12
2023-02-03T07:26:05.031Z,9.07
2023-02-03T07:28:32.397Z,9.04
2023-02-03T07:30:59.039Z,8.95
2023-02-03T07:33:25.517Z,9.13
2023-02-03T07:35:56.714Z,9.12
2023-02-03T07:38:24.704Z,9.08
2023-02-03T07:40:51.147Z,9.12
2023-02-03T07:43:18.444Z,9.15
2023-02-03T07:45:45.266Z,9.21
2023-02-03T07:48:12.375Z,9.18
2023-02-03T07:50:39.685Z,9.03
2023-02-03T07:53:09.243Z,9.11
2023-02-03T07:55:38.182Z,8.95
2023-02-03T07:58:04.663Z,8.88
2023-02-03T08:00:31.241Z,8.63
2023-02-03T08:02:57.689Z,8.65
2023-02-03T08:05:24.084Z,8.88
2023-02-03T08:07:50.500Z,8.67
2023-02-03T08:10:17.841Z,8.99
2023-02-03T08:12:45.484Z,9.00
2023-02-03T08:15:12.964Z,8.96
2023-02-03T08:17:41.159Z,8.91
2023-02-03T08:20:09.522Z,8.96
2023-02-03T08:22:35.926Z,8.99
2023-02-03T08:25:02.417Z,8.99
2023-02-03T08:27:28.792Z,9.06
2023-02-03T08:29:55.139Z,9.06
2023-02-03T08:32:22.602Z,9.08
2023-02-03T08:34:50.074Z,8.96
2023-02-03T08:37:17.973Z,9.02
2023-02-03T08:39:44.382Z,8.87
2023-02-03T08:42:11.178Z,9.01
2023-02-03T08:44:39.072Z,9.13
2023-02-03T08:47:06.475Z,9.12
2023-02-03T08:49:33.963Z,9.15
2023-02-03T08:52:00.518Z,9.21
2023-02-03T08:54:27.105Z,9.18
2023-02-03T08:56:53.772Z,9.25
2023-02-03T08:59:20.228Z,9.33
2023-02-03T09:01:48.418Z,9.32
2023-02-03T09:04:19.729Z,9.32
2023-02-03T09:06:49.608Z,9.14
2023-02-03T09:09:16.605Z,9.34
2023-02-03T09:11:43.566Z,9.36
2023-02-03T09:14:10.561Z,9.46
2023-02-03T09:16:37.085Z,9.45
2023-02-03T09:19:03.568Z,9.42
2023-02-03T09:21:39.862Z,9.52
2023-02-03T09:24:10.031Z,9.45
2023-02-03T09:26:36.508Z,9.41
2023-02-03T09:29:03.080Z,9.54
2023-02-03T09:31:29.545Z,9.62
2023-02-03T09:33:56.008Z,9.48
2023-02-03T09:36:22.364Z,9.58
2023-02-03T09:38:48.740Z,9.61
2023-02-03T09:41:47.680Z,9.69
2023-02-03T09:44:48.229Z,9.71
2023-02-03T09:47:24.939Z,9.59
2023-02-03T12:32:50.123Z,10.18
2023-02-03T12:35:23.136Z,10.11
2023-02-03T12:38:01.634Z,10.21
2023-02-03T12:40:49.529Z,10.33
2023-02-03T12:43:25.148Z,10.18
2023-02-03T12:45:58.042Z,10.13
2023-02-03T12:48:31.535Z,10.06
2023-02-03T12:51:02.403Z,10.15
2023-02-03T12:53:36.438Z,10.18
2023-02-03T12:56:07.264Z,9.91
2023-02-03T12:58:39.737Z,10.21
2023-02-03T13:01:26.442Z,10.32
2023-02-03T13:04:05.799Z,10.32
2023-02-03T13:06:50.591Z,10.57
2023-02-03T13:09:54.735Z,10.42
2023-02-03T13:12:41.124Z,10.06
2023-02-03T13:15:31.036Z,9.84
2023-02-03T13:18:10.811Z,9.81
2023-02-03T13:20:37.350Z,9.75
2023-02-03T13:23:07.755Z,9.85
2023-02-03T13:25:42.790Z,9.76
2023-02-03T13:28:27.891Z,9.78
2023-02-03T13:31:14.576Z,9.66
2023-02-03T13:34:02.158Z,9.65
2023-02-03T13:37:04.746Z,9.68
2023-02-03T13:40:00.540Z,9.47
2023-02-03T13:42:31.646Z,9.51
2023-02-03T13:45:07.352Z,9.44
2023-02-03T13:47:34.125Z,9.42
2023-02-03T13:50:05.915Z,9.40
2023-02-03T13:52:44.121Z,9.42
2023-02-03T13:55:28.552Z,9.31
2023-02-03T13:57:55.359Z,9.29
2023-02-03T14:01:26.027Z,9.36
2023-02-03T14:03:53.080Z,9.37
2023-02-03T14:06:52.518Z,9.35
2023-02-03T14:09:34.242Z,9.27
2023-02-03T14:12:15.494Z,9.34
2023-02-03T14:14:44.921Z,9.10
2023-02-03T14:17:42.465Z,9.32
2023-02-03T14:20:27.521Z,9.19
2023-02-03T14:22:58.437Z,9.18
2023-02-03T14:25:27.131Z,9.10
2023-02-03T14:28:00.745Z,8.85
2023-02-03T14:30:27.455Z,8.79
2023-02-03T14:32:59.748Z,9.05
2023-02-03T14:35:36.517Z,9.05
2023-02-03T14:38:06.817Z,9.08
2023-02-03T14:40:58.426Z,9.03
2023-02-03T14:44:00.471Z,9.04
2023-02-03T14:46:57.649Z,8.76
2023-02-03T14:49:37.858Z,8.80
2023-02-03T14:52:16.100Z,8.76
2023-02-03T14:55:26.892Z,8.71
2023-02-03T14:58:01.800Z,8.62
2023-02-03T15:00:34.786Z,8.74
2023-02-03T15:03:10.434Z,8.78
2023-02-03T15:05:43.975Z,8.63
2023-02-03T15:08:42.301Z,8.72
2023-02-03T15:11:24.628Z,8.74
2023-02-03T15:13:51.246Z,8.65
2023-02-03T15:16:20.874Z,8.52
2023-02-03T15:18:54.794Z,8.62
2023-02-03T15:21:21.316Z,8.46
2023-02-03T15:23:49.446Z,8.64
2023-02-03T15:26:19.867Z,8.58
2023-02-03T15:29:03.382Z,8.34
2023-02-03T15:31:37.557Z,8.46
2023-02-03T15:34:30.058Z,8.32
2023-02-03T15:37:00.621Z,8.34
2023-02-03T15:39:34.667Z,8.21
2023-02-03T15:42:03.430Z,8.05
2023-02-03T15:44:35.563Z,8.18
2023-02-03T15:47:05.986Z,8.11
2023-02-03T15:49:39.062Z,8.01
2023-02-03T15:52:16.970Z,8.08
2023-02-03T15:54:53.383Z,7.86
2023-02-03T15:57:24.007Z,8.17
2023-02-03T15:59:57.209Z,7.99
2023-02-03T16:02:29.953Z,8.09
2023-02-03T16:04:56.662Z,7.93
2023-02-03T16:07:27.287Z,8.04
2023-02-03T16:09:55.524Z,8.09
2023-02-03T16:12:24.586Z,8.13
2023-02-03T16:14:52.308Z,7.95
2023-02-03T16:17:24.422Z,7.74
2023-02-03T16:19:52.238Z,7.77
2023-02-03T16:22:32.085Z,7.82
2023-02-03T16:25:19.396Z,7.84
2023-02-03T16:28:14.522Z,7.70
2023-02-03T16:31:12.533Z,7.81
2023-02-03T16:33:57.645Z,7.74
2023-02-03T16:36:42.280Z,7.71
2023-02-03T16:39:31.421Z,7.78
2023-02-03T16:42:17.923Z,7.61
2023-02-03T16:45:04.253Z,7.52
2023-02-03T16:47:51.116Z,7.52
2023-02-03T16:50:39.849Z,7.48
2023-02-03T16:53:13.158Z,7.52
2023-02-03T16:55:40.042Z,7.44
2023-02-03T16:58:06.429Z,7.40
2023-02-03T17:00:32.866Z,7.54
2023-02-03T17:03:04.092Z,7.51
2023-02-03T17:05:30.844Z,7.39
2023-02-03T17:07:57.419Z,7.22
2023-02-03T17:10:23.806Z,7.24
2023-02-03T17:12:51.946Z,7.22
2023-02-03T17:15:18.472Z,7.37
2023-02-03T17:17:46.021Z,7.24
2023-02-03T17:20:12.794Z,7.44
2023-02-03T17:22:39.196Z,7.43
2023-02-03T17:25:05.888Z,7.51
2023-02-03T17:27:32.317Z,7.59
2023-02-03T17:29:58.738Z,7.64
2023-02-03T17:32:25.140Z,7.61
2023-02-03T17:34:51.486Z,7.73
2023-02-03T17:37:17.880Z,7.67
2023-02-03T17:53:25.007Z,7.71
2023-02-03T17:55:51.424Z,7.70
2023-02-03T17:58:17.786Z,7.82
2023-02-03T18:00:44.480Z,7.90
2023-02-03T18:03:10.873Z,7.68
2023-02-03T18:05:38.273Z,7.71
2023-02-03T18:08:12.390Z,7.81
2023-02-03T18:10:43.059Z,7.79
2023-02-03T18:13:09.534Z,7.82
2023-02-03T18:15:38.453Z,7.57
2023-02-03T18:18:04.943Z,7.59
2023-02-03T18:20:31.486Z,7.54
2023-02-03T18:22:57.966Z,7.45
2023-02-03T18:25:24.325Z,7.61
2023-02-03T18:27:52.053Z,7.57
2023-02-03T18:30:21.443Z,7.47
2023-02-03T18:32:51.566Z,7.59
2023-02-03T18:35:18.716Z,7.38
2023-02-03T18:37:45.147Z,7.19
2023-02-03T18:40:12.429Z,7.44
2023-02-03T18:42:38.902Z,7.37
2023-02-03T18:45:06.370Z,7.25
2023-02-03T18:47:33.591Z,7.40
2023-02-03T18:50:00.092Z,7.47
2023-02-03T18:52:26.578Z,7.40
2023-02-03T18:54:52.957Z,7.16
2023-02-03T18:57:19.380Z,7.33
2023-02-03T18:59:46.583Z,7.33
2023-02-03T19:02:13.091Z,7.22
2023-02-03T19:04:39.701Z,7.21
2023-02-03T19:07:06.198Z,7.27
2023-02-03T19:09:34.003Z,7.22
2023-02-03T19:12:00.388Z,7.25
2023-02-03T19:14:28.331Z,7.10
2023-02-03T19:16:54.802Z,7.19
2023-02-03T19:19:21.171Z,7.10
2023-02-03T19:21:48.706Z,7.32
2023-02-03T19:24:16.046Z,7.30
2023-02-03T19:26:42.642Z,7.40
2023-02-03T19:29:09.095Z,7.27
2023-02-03T19:31:35.799Z,7.16
2023-02-03T19:34:02.387Z,7.20
2023-02-03T19:36:29.675Z,7.41
2023-02-03T19:38:56.776Z,7.48
2023-02-03T19:41:23.719Z,7.43
2023-02-03T19:43:52.069Z,7.44
2023-02-03T19:46:21.556Z,7.43
2023-02-03T19:48:48.828Z,7.24
2023-02-03T19:51:15.285Z,7.07
2023-02-03T19:53:41.721Z,7.12
2023-02-03T19:56:08.109Z,7.33
2023-02-03T19:58:34.556Z,7.34
2023-02-03T20:01:01.022Z,7.29
2023-02-03T20:03:27.424Z,7.42
2023-02-03T20:05:53.981Z,7.39
2023-02-03T20:08:20.494Z,7.44
2023-02-03T20:10:47.027Z,7.34
2023-02-03T20:13:13.682Z,7.43
2023-02-03T20:15:40.628Z,7.34
2023-02-03T20:18:07.833Z,7.14
2023-02-03T20:20:35.000Z,7.33
2023-02-03T20:23:01.642Z,7.15
2023-02-03T20:25:28.087Z,7.28
2023-02-03T20:27:56.706Z,7.11
2023-02-03T20:30:23.096Z,7.16
2023-02-03T20:32:49.923Z,7.11
2023-02-03T20:35:16.363Z,6.85
2023-02-03T20:37:43.424Z,6.95
2023-02-03T20:40:16.913Z,6.93
2023-02-03T20:42:43.348Z,6.90
2023-02-03T20:45:15.194Z,6.56
2023-02-03T20:47:42.381Z,6.92
2023-02-03T20:50:22.473Z,6.65
2023-02-03T20:52:51.929Z,6.80
2023-02-03T20:55:21.003Z,6.79
2023-02-03T20:57:50.605Z,6.77
2023-02-03T21:00:25.701Z,6.79
2023-02-03T21:03:11.494Z,6.73
2023-02-03T21:05:43.156Z,6.77
2023-02-03T21:08:20.188Z,6.83
2023-02-03T21:10:48.056Z,6.85
2023-02-03T21:13:20.682Z,6.83
2023-02-03T21:15:52.180Z,6.84
2023-02-03T21:18:29.166Z,6.79
2023-02-03T21:20:56.370Z,6.58
2023-02-03T21:23:25.840Z,6.81
2023-02-03T21:25:52.255Z,6.75
2023-02-03T21:28:28.113Z,6.76
2023-02-03T21:30:54.646Z,6.48
2023-02-03T21:33:41.576Z,6.70
2023-02-03T21:36:34.877Z,6.82
2023-02-03T21:39:02.187Z,6.72
2023-02-03T21:41:33.347Z,6.63
2023-02-03T21:44:00.577Z,6.64
2023-02-03T21:46:29.557Z,6.33
2023-02-03T21:48:58.009Z,6.50
2023-02-03T21:51:27.888Z,6.55
2023-02-03T21:53:57.115Z,6.60
2023-02-03T21:56:30.044Z,6.62
2023-02-03T21:58:58.762Z,6.45
2023-02-03T22:01:29.469Z,6.58
2023-02-03T22:03:56.165Z,6.50
2023-02-03T22:06:28.238Z,6.38
2023-02-03T22:08:57.537Z,6.25
2023-02-03T22:11:26.419Z,6.53
2023-02-03T22:13:52.912Z,6.27
2023-02-03T22:16:19.538Z,6.42
2023-02-03T22:18:47.248Z,6.47
2023-02-03T22:21:14.526Z,6.43
2023-02-03T22:23:41.848Z,6.45
2023-02-03T22:26:09.448Z,6.50
2023-02-03T22:28:36.677Z,6.41
2023-02-03T22:31:07.527Z,6.31
2023-02-03T22:33:35.340Z,6.42
2023-02-03T22:36:03.256Z,6.39
2023-02-03T22:38:30.553Z,6.42
2023-02-03T22:40:56.919Z,6.34
2023-02-03T22:43:23.346Z,6.38
2023-02-03T22:45:49.753Z,6.33
2023-02-03T22:48:16.134Z,6.29
2023-02-03T22:50:42.632Z,6.22
2023-02-03T22:53:09.288Z,6.12
2023-02-03T22:55:37.099Z,6.18
2023-02-03T22:58:04.503Z,6.34
2023-02-03T23:00:31.831Z,6.29
2023-02-03T23:02:59.033Z,6.16
2023-02-03T23:05:25.659Z,6.13
2023-02-03T23:07:52.433Z,6.25
2023-02-03T23:10:22.567Z,6.21
2023-02-03T23:12:49.298Z,6.16
2023-02-03T23:15:17.912Z,6.25
2023-02-03T23:17:45.187Z,6.40
2023-02-03T23:20:13.228Z,6.26
2023-02-03T23:22:39.775Z,6.37
2023-02-03T23:25:06.432Z,6.43
2023-02-03T23:27:32.812Z,6.46
2023-02-03T23:29:59.222Z,6.51
2023-02-03T23:32:25.654Z,6.50
2023-02-03T23:35:10.589Z,6.69
2023-02-03T23:37:37.078Z,6.72
2023-02-03T23:40:04.973Z,6.89
2023-02-03T23:42:31.380Z,6.79
2023-02-03T23:44:57.770Z,6.81
2023-02-03T23:47:24.181Z,6.83
2023-02-03T23:49:50.596Z,6.80
2023-02-03T23:52:16.969Z,6.79
2023-02-03T23:54:43.407Z,6.68
2023-02-03T23:57:09.766Z,6.73
2023-02-03T23:59:36.120Z,6.89
